Weather at Hønefoss Airfield, Eggemoen

Public forecast

Using degrees Celsius for public forecast. Weather courtesy of forecast.io.

Closest aviation weather report (METAR) to Hønefoss Airfield, Eggemoen

Closest report is Oslo Airport, Gardermoen, 23.2 nm (43.0 km) E.

2024/05/20 17:50 (retrieved 19 minutes ago)

ENGM 201750Z VRB03KT CAVOK 19/04 Q1019 NOSIG

Closest aviation forecast (TAF) to Hønefoss Airfield, Eggemoen

Closest forecast is Oslo Airport, Gardermoen, 23.2 nm (43.0 km) E.

2024/05/20 18:36 (retrieved 0 seconds ago)

TAF ENGM 201700Z 2018/2118 VRB03KT CAVOK BECMG 2107/2109 15010KT